createdAt,value
2019-03-20T00:01:43.923Z,2.00
2019-03-20T00:04:13.602Z,2.00
2019-03-20T00:06:43.981Z,2.00
2019-03-20T00:09:14.517Z,2.00
2019-03-20T00:11:44.861Z,2.00
2019-03-20T00:14:15.342Z,2.00
2019-03-20T00:16:45.697Z,2.00
2019-03-20T00:19:16.061Z,2.00
2019-03-20T00:21:46.442Z,1.90
2019-03-20T00:24:16.775Z,1.90
2019-03-20T00:26:47.181Z,1.90
2019-03-20T00:29:17.537Z,1.90
2019-03-20T00:31:47.897Z,1.90
2019-03-20T00:34:18.217Z,1.90
2019-03-20T00:36:48.597Z,1.80
2019-03-20T00:39:18.941Z,1.80
2019-03-20T00:41:49.348Z,1.70
2019-03-20T00:44:19.725Z,1.70
2019-03-20T00:46:50.066Z,1.60
2019-03-20T00:49:20.473Z,1.60
2019-03-20T00:51:50.873Z,1.50
2019-03-20T00:54:21.277Z,1.50
2019-03-20T00:56:53.158Z,1.50
2019-03-20T00:59:23.572Z,1.40
2019-03-20T01:01:53.960Z,1.40
2019-03-20T01:04:24.335Z,1.30
2019-03-20T01:06:54.687Z,1.30
2019-03-20T01:09:25.398Z,1.30
2019-03-20T01:11:55.773Z,1.20
2019-03-20T01:14:26.149Z,1.20
2019-03-20T01:16:56.581Z,1.20
2019-03-20T01:19:26.936Z,1.20
2019-03-20T01:21:57.259Z,1.10
2019-03-20T01:24:27.677Z,1.10
2019-03-20T01:26:58.113Z,1.10
2019-03-20T01:29:28.459Z,1.10
2019-03-20T01:31:58.795Z,1.00
2019-03-20T01:34:29.153Z,1.00
2019-03-20T01:36:59.489Z,1.00
2019-03-20T01:39:29.941Z,1.00
2019-03-20T01:42:00.287Z,1.00
2019-03-20T01:44:30.699Z,1.00
2019-03-20T01:47:01.050Z,0.90
2019-03-20T01:49:31.547Z,0.90
2019-03-20T01:52:01.969Z,0.90
2019-03-20T01:54:32.331Z,0.80
2019-03-20T01:57:02.659Z,0.70
2019-03-20T01:59:33.018Z,0.70
2019-03-20T02:02:03.651Z,0.70
2019-03-20T02:04:34.000Z,0.60
2019-03-20T02:07:04.345Z,0.60
2019-03-20T02:09:34.702Z,0.60
2019-03-20T02:12:05.046Z,0.50
2019-03-20T02:14:35.371Z,0.40
2019-03-20T02:17:05.796Z,0.40
2019-03-20T02:19:36.140Z,0.40
2019-03-20T02:22:06.523Z,0.30
2019-03-20T02:24:36.844Z,0.30
2019-03-20T02:27:07.239Z,0.30
2019-03-20T02:29:37.658Z,0.30
2019-03-20T02:32:08.047Z,0.20
2019-03-20T02:34:38.366Z,0.20
2019-03-20T02:37:08.784Z,0.20
2019-03-20T02:39:39.158Z,0.20
2019-03-20T02:42:09.551Z,0.20
2019-03-20T02:44:39.949Z,0.20
2019-03-20T02:47:10.361Z,0.20
2019-03-20T02:49:40.702Z,0.10
2019-03-20T02:52:11.079Z,0.10
2019-03-20T02:54:41.458Z,0.10
2019-03-20T02:57:11.817Z,0.10
2019-03-20T02:59:42.184Z,0.00
2019-03-20T03:02:12.528Z,-0.10
2019-03-20T03:04:42.892Z,-0.10
2019-03-20T03:07:13.259Z,-0.10
2019-03-20T03:09:43.644Z,-0.10
2019-03-20T03:12:14.005Z,-0.20
2019-03-20T03:14:44.341Z,-0.20
2019-03-20T03:17:14.676Z,-0.20
2019-03-20T03:19:45.057Z,-0.30
2019-03-20T03:22:15.405Z,-0.30
2019-03-20T03:24:45.753Z,-0.30
2019-03-20T03:27:16.093Z,-0.30
2019-03-20T03:29:46.463Z,-0.40
2019-03-20T03:32:16.793Z,-0.30
2019-03-20T03:34:47.119Z,-0.40
2019-03-20T03:37:17.453Z,-0.40
2019-03-20T03:39:47.813Z,-0.40
2019-03-20T03:42:18.121Z,-0.40
2019-03-20T03:44:48.595Z,-0.40
2019-03-20T03:47:19.064Z,-0.50
2019-03-20T03:49:49.455Z,-0.50
2019-03-20T03:52:19.775Z,-0.50
2019-03-20T03:54:50.187Z,-0.60
2019-03-20T03:57:20.537Z,-0.60
2019-03-20T03:59:50.960Z,-0.70
2019-03-20T04:02:21.328Z,-0.70
2019-03-20T04:04:51.777Z,-0.70
2019-03-20T04:07:23.705Z,-0.80
2019-03-20T04:09:54.233Z,-0.80
2019-03-20T04:12:24.660Z,-0.90
2019-03-20T04:14:54.986Z,-0.90
2019-03-20T04:17:29.168Z,-0.90
2019-03-20T04:19:59.544Z,-0.90
2019-03-20T04:22:29.921Z,-1.00
2019-03-20T04:25:00.472Z,-1.00
2019-03-20T04:27:30.892Z,-1.00
2019-03-20T04:30:01.275Z,-1.10
2019-03-20T04:32:31.727Z,-1.10
2019-03-20T04:35:02.077Z,-1.10
2019-03-20T04:37:32.465Z,-1.10
2019-03-20T04:40:02.811Z,-1.10
2019-03-20T04:42:33.176Z,-1.20
2019-03-20T04:45:03.587Z,-1.20
2019-03-20T04:47:34.071Z,-1.20
2019-03-20T04:50:05.204Z,-1.20
2019-03-20T04:52:35.560Z,-1.20
2019-03-20T04:55:06.524Z,-1.20
2019-03-20T04:57:36.882Z,-1.20
2019-03-20T05:00:10.475Z,-1.30
2019-03-20T05:02:40.820Z,-1.30
2019-03-20T05:05:11.178Z,-1.30
2019-03-20T05:07:41.569Z,-1.30
2019-03-20T05:10:13.322Z,-1.40
2019-03-20T05:12:46.738Z,-1.40
2019-03-20T05:15:17.122Z,-1.40
2019-03-20T05:17:47.531Z,-1.40
2019-03-20T05:20:17.944Z,-1.40
2019-03-20T05:22:48.290Z,-1.50
2019-03-20T05:25:18.733Z,-1.50
2019-03-20T05:27:49.188Z,-1.50
2019-03-20T05:30:19.547Z,-1.50
2019-03-20T05:32:49.986Z,-1.50
2019-03-20T05:35:20.476Z,-1.60
2019-03-20T05:37:50.853Z,-1.60
2019-03-20T05:40:21.257Z,-1.60
2019-03-20T05:42:51.599Z,-1.60
2019-03-20T05:45:22.044Z,-1.60
2019-03-20T05:47:52.480Z,-1.60
2019-03-20T05:50:22.851Z,-1.60
2019-03-20T05:52:53.288Z,-1.60
2019-03-20T05:55:23.693Z,-1.60
2019-03-20T05:57:54.082Z,-1.60
2019-03-20T06:00:26.296Z,-1.60
2019-03-20T06:02:56.704Z,-1.60
2019-03-20T06:05:27.064Z,-1.60
2019-03-20T06:07:57.452Z,-1.60
2019-03-20T06:10:27.807Z,-1.60
2019-03-20T06:12:58.339Z,-1.60
2019-03-20T06:15:28.745Z,-1.60
2019-03-20T06:17:59.139Z,-1.50
2019-03-20T06:20:29.545Z,-1.50
2019-03-20T06:23:00.018Z,-1.50
2019-03-20T06:25:33.856Z,-1.40
2019-03-20T06:28:04.655Z,-1.40
2019-03-20T06:30:35.230Z,-1.40
2019-03-20T06:33:05.801Z,-1.30
2019-03-20T06:35:36.721Z,-1.30
2019-03-20T06:38:07.369Z,-1.20
2019-03-20T06:40:41.156Z,-1.20
2019-03-20T06:43:12.229Z,-1.10
2019-03-20T06:45:43.094Z,-1.00
2019-03-20T06:48:13.435Z,-1.00
2019-03-20T06:50:43.826Z,-0.90
2019-03-20T06:53:14.361Z,-0.80
2019-03-20T06:55:46.569Z,-0.80
2019-03-20T06:58:16.887Z,-0.70
2019-03-20T07:01:17.814Z,-0.60
2019-03-20T07:04:25.312Z,-0.50
2019-03-20T07:07:23.296Z,-0.40
2019-03-20T07:10:20.021Z,-0.20
2019-03-20T07:12:50.423Z,-0.10
2019-03-20T07:15:21.385Z,0.00
2019-03-20T07:17:51.948Z,0.20
2019-03-20T07:20:22.361Z,0.30
2019-03-20T07:22:52.751Z,0.40
2019-03-20T07:25:23.153Z,0.60
2019-03-20T07:27:53.893Z,0.70
2019-03-20T07:30:24.641Z,0.80
2019-03-20T07:32:55.221Z,0.90
2019-03-20T07:35:25.565Z,1.10
2019-03-20T07:37:56.544Z,1.20
2019-03-20T07:40:27.732Z,1.30
2019-03-20T07:43:08.304Z,1.40
2019-03-20T07:45:30.213Z,1.50
2019-03-20T07:48:00.611Z,1.60
2019-03-20T07:50:30.995Z,1.70
2019-03-20T07:53:01.448Z,1.80
2019-03-20T07:55:32.615Z,1.90
2019-03-20T07:58:02.991Z,2.10
2019-03-20T08:00:33.334Z,2.20
2019-03-20T08:03:03.722Z,2.30
2019-03-20T08:05:34.054Z,2.50
2019-03-20T08:08:07.482Z,2.60
2019-03-20T08:10:38.857Z,2.80
2019-03-20T08:13:09.275Z,2.90
2019-03-20T08:15:39.675Z,3.10
2019-03-20T08:18:10.677Z,3.30
2019-03-20T08:20:41.075Z,3.40
2019-03-20T08:23:11.491Z,3.50
2019-03-20T08:25:41.851Z,3.70
2019-03-20T08:28:12.287Z,3.80
2019-03-20T08:30:42.631Z,3.90
2019-03-20T08:33:12.978Z,4.00
2019-03-20T08:35:43.493Z,4.10
2019-03-20T08:38:18.151Z,4.20
2019-03-20T08:40:45.951Z,4.40
2019-03-20T08:43:16.334Z,4.50
2019-03-20T08:45:46.683Z,4.60
2019-03-20T08:48:17.071Z,4.70
2019-03-20T08:50:47.405Z,4.80
2019-03-20T08:53:17.832Z,4.90
2019-03-20T08:55:48.256Z,5.00
2019-03-20T08:58:18.813Z,5.10
2019-03-20T09:00:49.506Z,5.30
2019-03-20T09:03:19.914Z,5.50
2019-03-20T09:05:50.256Z,5.60
2019-03-20T09:08:28.967Z,5.70
2019-03-20T09:10:52.761Z,5.90
2019-03-20T09:13:23.133Z,6.00
2019-03-20T09:15:53.519Z,6.20
2019-03-20T09:18:23.901Z,6.30
2019-03-20T09:20:54.326Z,6.40
2019-03-20T09:23:24.699Z,6.60
2019-03-20T09:25:55.052Z,6.70
2019-03-20T09:28:25.477Z,6.90
2019-03-20T09:30:55.866Z,7.10
2019-03-20T09:33:26.224Z,7.30
2019-03-20T09:35:56.569Z,7.50
2019-03-20T09:38:26.951Z,7.70
2019-03-20T09:40:57.309Z,7.80
2019-03-20T09:43:27.720Z,8.00
2019-03-20T09:45:58.092Z,8.10
2019-03-20T09:48:28.551Z,8.20
2019-03-20T09:50:59.361Z,8.30
2019-03-20T09:53:29.694Z,8.40
2019-03-20T09:56:00.042Z,8.50
2019-03-20T09:58:30.425Z,8.60
2019-03-20T10:01:01.402Z,8.70
2019-03-20T10:03:31.782Z,8.80
2019-03-20T10:06:02.485Z,9.00
2019-03-20T10:08:33.096Z,9.20
2019-03-20T10:11:03.458Z,9.30
2019-03-20T10:13:33.811Z,9.50
2019-03-20T10:16:04.689Z,9.70
2019-03-20T10:18:35.084Z,9.80
2019-03-20T10:21:05.671Z,10.00
2019-03-20T10:23:36.132Z,10.20
2019-03-20T10:26:06.910Z,10.30
2019-03-20T10:28:37.295Z,10.50
2019-03-20T10:31:07.685Z,10.60
2019-03-20T10:33:38.437Z,10.60
2019-03-20T10:36:08.844Z,10.60
2019-03-20T10:38:39.945Z,10.60
2019-03-20T10:41:10.540Z,10.60
2019-03-20T10:43:41.129Z,10.50
2019-03-20T10:46:11.794Z,10.60
2019-03-20T10:48:42.416Z,10.60
2019-03-20T10:51:13.127Z,10.70
2019-03-20T10:53:43.758Z,10.80
2019-03-20T10:56:14.689Z,11.00
2019-03-20T10:58:45.328Z,11.20
2019-03-20T11:01:15.923Z,11.50
2019-03-20T11:03:46.533Z,11.80
2019-03-20T11:06:17.182Z,12.20
2019-03-20T11:08:47.744Z,12.70
2019-03-20T11:11:26.671Z,13.20
2019-03-20T11:13:50.707Z,13.70
2019-03-20T11:16:21.334Z,14.10
2019-03-20T11:18:51.949Z,14.50
2019-03-20T11:21:22.539Z,14.80
2019-03-20T11:23:53.132Z,15.20
2019-03-20T11:26:23.709Z,15.40
2019-03-20T11:28:54.307Z,15.70
2019-03-20T11:31:24.907Z,15.90
2019-03-20T11:33:55.531Z,16.10
2019-03-20T11:36:25.959Z,16.10
2019-03-20T11:38:56.615Z,16.00
2019-03-20T11:41:27.250Z,15.80
2019-03-20T11:43:57.811Z,15.60
2019-03-20T11:46:28.451Z,15.40
2019-03-20T11:48:59.083Z,15.30
2019-03-20T11:51:29.527Z,15.20
2019-03-20T11:54:00.225Z,15.10
2019-03-20T11:56:31.937Z,15.00
2019-03-20T11:59:02.652Z,15.00
2019-03-20T12:01:33.203Z,15.10
2019-03-20T12:04:03.671Z,15.00
2019-03-20T12:06:34.347Z,15.00
2019-03-20T12:09:08.275Z,14.90
2019-03-20T12:11:45.852Z,14.90
2019-03-20T12:14:11.065Z,14.80
2019-03-20T12:16:41.885Z,14.70
2019-03-20T12:19:12.607Z,14.80
2019-03-20T12:21:43.271Z,14.90
2019-03-20T12:24:13.685Z,14.90
2019-03-20T12:26:44.373Z,15.00
2019-03-20T12:29:15.098Z,15.10
2019-03-20T12:31:48.649Z,15.30
2019-03-20T12:34:19.003Z,15.50
2019-03-20T12:36:49.563Z,15.70
2019-03-20T12:39:19.960Z,16.00
2019-03-20T12:41:50.285Z,16.30
2019-03-20T12:44:20.707Z,16.60
2019-03-20T12:46:51.124Z,16.90
2019-03-20T12:49:21.509Z,17.10
2019-03-20T12:51:51.933Z,17.30
2019-03-20T12:54:22.307Z,17.50
2019-03-20T12:56:52.829Z,17.70
2019-03-20T12:59:23.195Z,17.80
2019-03-20T13:01:53.585Z,18.00
2019-03-20T13:04:23.945Z,18.30
2019-03-20T13:06:54.285Z,18.60
2019-03-20T13:09:24.669Z,18.80
2019-03-20T13:11:55.096Z,19.00
2019-03-20T13:14:25.431Z,18.90
2019-03-20T13:16:55.858Z,18.60
2019-03-20T13:19:26.233Z,18.60
2019-03-20T13:21:56.628Z,18.70
2019-03-20T13:24:26.987Z,18.80
2019-03-20T13:26:57.383Z,19.00
2019-03-20T13:29:27.760Z,19.00
2019-03-20T13:31:58.110Z,19.00
2019-03-20T13:34:28.485Z,18.90
2019-03-20T13:36:58.952Z,18.90
2019-03-20T13:39:29.344Z,18.90
2019-03-20T13:41:59.766Z,19.10
2019-03-20T13:44:30.167Z,19.20
2019-03-20T13:47:00.571Z,19.20
2019-03-20T13:49:31.021Z,19.20
2019-03-20T13:52:01.378Z,19.20
2019-03-20T13:54:31.789Z,19.40
2019-03-20T13:57:02.161Z,19.40
2019-03-20T13:59:32.623Z,19.40
2019-03-20T14:02:02.984Z,19.40
2019-03-20T14:04:33.378Z,19.40
2019-03-20T14:07:03.808Z,19.50
2019-03-20T14:09:34.232Z,19.60
2019-03-20T14:12:04.639Z,19.70
2019-03-20T14:14:35.014Z,19.80
2019-03-20T14:17:05.457Z,20.00
2019-03-20T14:19:35.819Z,20.20
2019-03-20T14:22:06.229Z,20.10
2019-03-20T14:24:36.603Z,19.90
2019-03-20T14:27:07.014Z,19.90
2019-03-20T14:29:39.597Z,20.10
2019-03-20T14:32:09.548Z,20.30
2019-03-20T14:34:39.982Z,20.50
2019-03-20T14:37:10.492Z,20.70
2019-03-20T14:39:40.907Z,20.80
2019-03-20T14:42:11.333Z,20.90
2019-03-20T14:44:41.715Z,21.00
2019-03-20T14:47:12.182Z,21.00
2019-03-20T14:49:42.605Z,20.80
2019-03-20T14:52:12.993Z,20.70
2019-03-20T14:54:43.354Z,20.60
2019-03-20T14:57:13.740Z,20.50
2019-03-20T14:59:44.132Z,20.70
2019-03-20T15:02:14.625Z,20.80
2019-03-20T15:04:44.993Z,20.80
2019-03-20T15:07:15.469Z,20.80
2019-03-20T15:09:45.794Z,20.80
2019-03-20T15:12:16.217Z,20.90
2019-03-20T15:14:46.590Z,20.90
2019-03-20T15:17:16.953Z,21.00
2019-03-20T15:19:47.343Z,21.00
2019-03-20T15:22:24.198Z,20.90
2019-03-20T15:24:56.494Z,20.70
2019-03-20T15:27:27.252Z,20.40
2019-03-20T15:29:57.622Z,20.20
2019-03-20T15:32:28.023Z,19.90
2019-03-20T15:35:02.137Z,19.60
2019-03-20T15:37:32.460Z,19.30
2019-03-20T15:40:02.894Z,19.00
2019-03-20T15:42:33.273Z,18.60
2019-03-20T15:45:03.737Z,18.30
2019-03-20T15:47:34.130Z,18.00
2019-03-20T15:50:05.904Z,17.60
2019-03-20T15:52:36.500Z,17.30
2019-03-20T15:55:09.669Z,16.90
2019-03-20T15:57:40.400Z,16.50
2019-03-20T16:00:15.844Z,16.10
2019-03-20T16:02:46.903Z,15.80
2019-03-20T16:05:17.974Z,15.40
2019-03-20T16:07:48.584Z,15.00
2019-03-20T16:10:20.994Z,14.60
2019-03-20T16:12:51.456Z,14.30
2019-03-20T16:15:22.630Z,13.90
2019-03-20T16:17:53.493Z,13.60
2019-03-20T16:20:24.106Z,13.40
2019-03-20T16:22:54.731Z,13.10
2019-03-20T16:25:25.384Z,12.90
2019-03-20T16:27:56.017Z,12.70
2019-03-20T16:30:26.691Z,12.50
2019-03-20T16:32:57.175Z,12.30
2019-03-20T16:35:27.580Z,12.10
2019-03-20T16:37:57.983Z,11.90
2019-03-20T16:40:30.223Z,11.80
2019-03-20T16:43:01.507Z,11.60
2019-03-20T16:45:32.405Z,11.50
2019-03-20T16:48:02.815Z,11.30
2019-03-20T16:50:33.237Z,11.10
2019-03-20T16:53:03.616Z,11.00
2019-03-20T16:55:33.996Z,10.80
2019-03-20T16:58:06.169Z,10.70
2019-03-20T17:00:37.089Z,10.50
2019-03-20T17:03:07.876Z,10.40
2019-03-20T17:05:38.313Z,10.20
2019-03-20T17:08:08.889Z,10.10
2019-03-20T17:10:40.307Z,10.00
2019-03-20T17:13:11.305Z,9.80
2019-03-20T17:15:41.791Z,9.70
2019-03-20T17:18:12.217Z,9.50
2019-03-20T17:20:42.745Z,9.40
2019-03-20T17:23:13.668Z,9.20
2019-03-20T17:25:49.295Z,9.00
2019-03-20T17:28:19.887Z,8.90
2019-03-20T17:30:50.572Z,8.70
2019-03-20T17:33:20.951Z,8.50
2019-03-20T17:35:51.391Z,8.40
2019-03-20T17:38:21.879Z,8.20
2019-03-20T17:40:55.249Z,8.00
2019-03-20T17:43:25.654Z,7.90
2019-03-20T17:45:56.085Z,7.70
2019-03-20T17:48:26.486Z,7.60
2019-03-20T17:50:56.875Z,7.40
2019-03-20T17:53:27.905Z,7.30
2019-03-20T17:55:58.609Z,7.10
2019-03-20T17:58:29.214Z,6.90
2019-03-20T18:00:59.639Z,6.80
2019-03-20T18:03:30.135Z,6.60
2019-03-20T18:06:01.140Z,6.50
2019-03-20T18:08:31.839Z,6.30
2019-03-20T18:11:02.166Z,6.20
2019-03-20T18:13:32.558Z,6.10
2019-03-20T18:16:02.958Z,5.90
2019-03-20T18:18:33.393Z,5.80
2019-03-20T18:21:03.796Z,5.60
2019-03-20T18:23:34.199Z,5.40
2019-03-20T18:26:04.592Z,5.30
2019-03-20T18:28:35.327Z,5.10
2019-03-20T18:31:05.747Z,4.90
2019-03-20T18:33:36.146Z,4.80
2019-03-20T18:36:06.586Z,4.70
2019-03-20T18:38:37.029Z,4.50
2019-03-20T18:41:08.301Z,4.40
2019-03-20T18:43:39.103Z,4.30
2019-03-20T18:46:09.513Z,4.10
2019-03-20T18:48:39.933Z,4.00
2019-03-20T18:51:10.397Z,3.90
2019-03-20T18:53:41.083Z,3.80
2019-03-20T18:56:11.807Z,3.70
2019-03-20T18:58:42.508Z,3.70
2019-03-20T19:01:13.088Z,3.60
2019-03-20T19:03:46.356Z,3.50
2019-03-20T19:06:22.558Z,3.40
2019-03-20T19:08:53.072Z,3.40
2019-03-20T19:11:24.003Z,3.30
2019-03-20T19:13:54.468Z,3.20
2019-03-20T19:16:24.942Z,3.10
2019-03-20T19:18:55.519Z,3.00
2019-03-20T19:21:26.514Z,2.90
2019-03-20T19:23:56.993Z,2.90
2019-03-20T19:26:27.520Z,2.80
2019-03-20T19:28:58.072Z,2.80
2019-03-20T19:31:28.405Z,2.70
2019-03-20T19:34:01.143Z,2.70
2019-03-20T19:36:31.528Z,2.60
2019-03-20T19:39:02.300Z,2.50
2019-03-20T19:41:32.770Z,2.40
2019-03-20T19:44:06.338Z,2.30
2019-03-20T19:47:17.255Z,2.30
2019-03-20T19:49:59.813Z,2.20
2019-03-20T19:52:38.686Z,2.10
2019-03-20T19:55:11.269Z,2.00
2019-03-20T19:57:55.574Z,2.00
2019-03-20T20:00:32.084Z,1.90
2019-03-20T20:03:05.896Z,1.80
2019-03-20T20:05:37.612Z,1.70
2019-03-20T20:08:08.432Z,1.70
2019-03-20T20:10:39.140Z,1.60
2019-03-20T20:13:09.952Z,1.60
2019-03-20T20:15:46.450Z,1.50
2019-03-20T20:18:18.415Z,1.50
2019-03-20T20:20:53.630Z,1.40
2019-03-20T20:23:24.194Z,1.40
2019-03-20T20:25:54.637Z,1.40
2019-03-20T20:28:25.001Z,1.40
2019-03-20T20:30:57.082Z,1.30
2019-03-20T20:33:28.046Z,1.40
2019-03-20T20:35:58.464Z,1.30
2019-03-20T20:38:29.009Z,1.30
2019-03-20T20:40:59.426Z,1.20
2019-03-20T20:43:30.014Z,1.20
2019-03-20T20:46:00.357Z,1.20
2019-03-20T20:48:31.066Z,1.10
2019-03-20T20:51:01.500Z,1.10
2019-03-20T20:53:31.869Z,1.00
2019-03-20T20:56:02.235Z,1.00
2019-03-20T20:58:32.667Z,1.00
2019-03-20T21:01:03.012Z,0.90
2019-03-20T21:03:33.369Z,0.90
2019-03-20T21:06:03.876Z,0.90
2019-03-20T21:08:36.491Z,0.90
2019-03-20T21:11:07.123Z,0.80
2019-03-20T21:13:37.673Z,0.80
2019-03-20T21:16:08.921Z,0.70
2019-03-20T21:19:31.651Z,0.70
2019-03-20T21:23:06.140Z,0.70
2019-03-20T21:25:37.758Z,0.60
2019-03-20T21:29:01.024Z,0.60
2019-03-20T21:31:50.227Z,0.60
2019-03-20T21:35:05.815Z,0.50
2019-03-20T21:38:04.993Z,0.50
2019-03-20T21:41:35.997Z,0.50
2019-03-20T21:44:53.597Z,0.50
2019-03-20T21:47:36.816Z,0.50
2019-03-20T21:51:22.173Z,0.50
2019-03-20T21:54:57.144Z,0.50
2019-03-20T21:58:15.355Z,0.40
2019-03-20T22:01:37.394Z,0.40
2019-03-20T22:04:08.609Z,0.30
2019-03-20T22:07:10.110Z,0.30
2019-03-20T22:11:19.916Z,0.30
2019-03-20T22:14:06.069Z,0.20
2019-03-20T22:17:49.897Z,0.10
2019-03-20T22:21:04.431Z,0.10
2019-03-20T22:24:29.942Z,0.10
2019-03-20T22:27:37.500Z,0.10
2019-03-20T22:30:09.160Z,0.00
2019-03-20T22:33:47.188Z,0.00
2019-03-20T22:36:33.656Z,0.00
2019-03-20T22:40:18.916Z,0.00
2019-03-20T22:43:09.362Z,-0.10
2019-03-20T22:46:41.329Z,-0.10
2019-03-20T22:50:13.470Z,-0.10
2019-03-20T22:53:56.053Z,-0.10
2019-03-20T22:57:04.072Z,-0.10
2019-03-20T22:59:35.339Z,-0.20
2019-03-20T23:02:20.695Z,-0.20
2019-03-20T23:04:56.589Z,-0.20
2019-03-20T23:07:27.888Z,-0.20
2019-03-20T23:09:59.075Z,-0.30
2019-03-20T23:12:30.304Z,-0.20
2019-03-20T23:15:01.475Z,-0.30
2019-03-20T23:17:32.607Z,-0.30
2019-03-20T23:20:04.239Z,-0.30
2019-03-20T23:22:35.405Z,-0.30
2019-03-20T23:25:07.428Z,-0.40
2019-03-20T23:27:38.600Z,-0.30
2019-03-20T23:30:16.207Z,-0.40
2019-03-20T23:32:47.398Z,-0.40
2019-03-20T23:35:18.611Z,-0.40
2019-03-20T23:37:49.839Z,-0.40
2019-03-20T23:40:21.131Z,-0.40
2019-03-20T23:42:52.400Z,-0.40
2019-03-20T23:45:23.584Z,-0.40
2019-03-20T23:48:25.176Z,-0.40
2019-03-20T23:51:01.828Z,-0.50
2019-03-20T23:53:33.436Z,-0.50
2019-03-20T23:56:04.648Z,-0.50
2019-03-20T23:58:35.817Z,-0.60
